sensor_id;sensor_type;location;lat;lon;timestamp;temperature;humidity
20139;DHT22;10230;51.502;10.800;2023-01-13T00:01:19;9.90;99.90
20139;DHT22;10230;51.502;10.800;2023-01-13T00:03:44;9.90;99.90
20139;DHT22;10230;51.502;10.800;2023-01-13T00:06:16;9.90;99.90
20139;DHT22;10230;51.502;10.800;2023-01-13T00:08:42;9.90;99.90
20139;DHT22;10230;51.502;10.800;2023-01-13T00:11:09;9.80;99.90
20139;DHT22;10230;51.502;10.800;2023-01-13T00:13:35;9.80;99.90
20139;DHT22;10230;51.502;10.800;2023-01-13T00:16:10;9.80;99.90
20139;DHT22;10230;51.502;10.800;2023-01-13T00:18:36;9.80;99.90
20139;DHT22;10230;51.502;10.800;2023-01-13T00:23:35;9.90;99.90
20139;DHT22;10230;51.502;10.800;2023-01-13T00:26:06;9.90;99.90
20139;DHT22;10230;51.502;10.800;2023-01-13T00:28:32;9.90;99.90
20139;DHT22;10230;51.502;10.800;2023-01-13T00:31:24;10.00;99.90
20139;DHT22;10230;51.502;10.800;2023-01-13T00:33:50;10.00;99.90
20139;DHT22;10230;51.502;10.800;2023-01-13T00:36:18;10.00;99.90
20139;DHT22;10230;51.502;10.800;2023-01-13T00:38:45;10.00;99.90
20139;DHT22;10230;51.502;10.800;2023-01-13T00:41:15;10.00;99.90
20139;DHT22;10230;51.502;10.800;2023-01-13T00:43:41;10.00;99.90
20139;DHT22;10230;51.502;10.800;2023-01-13T00:46:09;10.00;99.90
20139;DHT22;10230;51.502;10.800;2023-01-13T00:48:35;10.00;99.90
20139;DHT22;10230;51.502;10.800;2023-01-13T00:51:13;10.00;99.90
20139;DHT22;10230;51.502;10.800;2023-01-13T00:53:42;9.90;99.90
20139;DHT22;10230;51.502;10.800;2023-01-13T00:56:15;9.90;99.90
20139;DHT22;10230;51.502;10.800;2023-01-13T00:58:43;9.90;99.90
20139;DHT22;10230;51.502;10.800;2023-01-13T01:01:15;9.90;99.90
20139;DHT22;10230;51.502;10.800;2023-01-13T01:03:41;9.90;99.90
20139;DHT22;10230;51.502;10.800;2023-01-13T01:06:12;9.90;99.90
20139;DHT22;10230;51.502;10.800;2023-01-13T01:08:38;10.00;99.90
20139;DHT22;10230;51.502;10.800;2023-01-13T01:11:10;10.00;99.90
20139;DHT22;10230;51.502;10.800;2023-01-13T01:13:36;10.00;99.90
20139;DHT22;10230;51.502;10.800;2023-01-13T01:16:04;9.90;99.90
20139;DHT22;10230;51.502;10.800;2023-01-13T01:18:37;9.90;99.90
20139;DHT22;10230;51.502;10.800;2023-01-13T01:21:03;9.90;99.90
20139;DHT22;10230;51.502;10.800;2023-01-13T01:23:31;9.90;99.90
20139;DHT22;10230;51.502;10.800;2023-01-13T01:26:04;9.90;99.90
20139;DHT22;10230;51.502;10.800;2023-01-13T01:28:31;9.80;99.90
20139;DHT22;10230;51.502;10.800;2023-01-13T01:30:57;9.80;99.90
20139;DHT22;10230;51.502;10.800;2023-01-13T01:33:24;9.80;99.90
20139;DHT22;10230;51.502;10.800;2023-01-13T01:35:51;9.80;99.90
20139;DHT22;10230;51.502;10.800;2023-01-13T01:38:17;9.90;99.90
20139;DHT22;10230;51.502;10.800;2023-01-13T01:40:43;9.90;99.90
20139;DHT22;10230;51.502;10.800;2023-01-13T01:43:14;9.90;99.90
20139;DHT22;10230;51.502;10.800;2023-01-13T01:45:59;9.90;99.90
20139;DHT22;10230;51.502;10.800;2023-01-13T01:48:26;9.90;99.90
20139;DHT22;10230;51.502;10.800;2023-01-13T01:50:53;9.90;99.90
20139;DHT22;10230;51.502;10.800;2023-01-13T01:53:20;9.90;99.90
20139;DHT22;10230;51.502;10.800;2023-01-13T01:55:48;9.90;99.90
20139;DHT22;10230;51.502;10.800;2023-01-13T01:58:18;9.90;99.90
20139;DHT22;10230;51.502;10.800;2023-01-13T02:00:46;9.90;99.90
20139;DHT22;10230;51.502;10.800;2023-01-13T02:03:14;9.90;99.90
20139;DHT22;10230;51.502;10.800;2023-01-13T02:05:40;9.90;99.90
20139;DHT22;10230;51.502;10.800;2023-01-13T02:08:07;9.80;99.90
20139;DHT22;10230;51.502;10.800;2023-01-13T02:10:35;9.80;99.90
20139;DHT22;10230;51.502;10.800;2023-01-13T02:13:04;9.70;99.90
20139;DHT22;10230;51.502;10.800;2023-01-13T02:15:47;9.70;99.90
20139;DHT22;10230;51.502;10.800;2023-01-13T02:21:27;9.70;99.90
20139;DHT22;10230;51.502;10.800;2023-01-13T02:32:33;9.90;99.90
20139;DHT22;10230;51.502;10.800;2023-01-13T02:35:07;9.80;99.90
20139;DHT22;10230;51.502;10.800;2023-01-13T02:37:38;9.80;99.90
20139;DHT22;10230;51.502;10.800;2023-01-13T02:46:16;9.90;99.90
20139;DHT22;10230;51.502;10.800;2023-01-13T02:48:45;10.00;99.90
20139;DHT22;10230;51.502;10.800;2023-01-13T02:51:15;10.00;99.90
20139;DHT22;10230;51.502;10.800;2023-01-13T02:56:20;10.00;99.90
20139;DHT22;10230;51.502;10.800;2023-01-13T02:58:48;10.00;99.90
20139;DHT22;10230;51.502;10.800;2023-01-13T03:01:14;10.00;99.90
20139;DHT22;10230;51.502;10.800;2023-01-13T03:03:41;10.00;99.90
20139;DHT22;10230;51.502;10.800;2023-01-13T03:06:17;10.10;99.90
20139;DHT22;10230;51.502;10.800;2023-01-13T03:08:52;10.10;99.90
20139;DHT22;10230;51.502;10.800;2023-01-13T03:11:19;10.10;99.90
20139;DHT22;10230;51.502;10.800;2023-01-13T03:24:36;10.10;99.90
20139;DHT22;10230;51.502;10.800;2023-01-13T03:29:37;10.00;99.90
20139;DHT22;10230;51.502;10.800;2023-01-13T03:32:11;10.10;99.90
20139;DHT22;10230;51.502;10.800;2023-01-13T03:37:34;10.10;99.90
20139;DHT22;10230;51.502;10.800;2023-01-13T03:40:06;10.00;99.90
20139;DHT22;10230;51.502;10.800;2023-01-13T03:42:33;10.10;99.90
20139;DHT22;10230;51.502;10.800;2023-01-13T03:45:11;10.10;99.90
20139;DHT22;10230;51.502;10.800;2023-01-13T03:47:45;10.10;99.90
20139;DHT22;10230;51.502;10.800;2023-01-13T03:55:34;10.10;99.90
20139;DHT22;10230;51.502;10.800;2023-01-13T03:58:08;10.10;99.90
20139;DHT22;10230;51.502;10.800;2023-01-13T04:00:54;10.10;99.90
20139;DHT22;10230;51.502;10.800;2023-01-13T04:03:28;10.10;99.90
20139;DHT22;10230;51.502;10.800;2023-01-13T04:06:17;10.10;99.90
20139;DHT22;10230;51.502;10.800;2023-01-13T04:08:56;10.20;99.90
20139;DHT22;10230;51.502;10.800;2023-01-13T04:11:52;10.20;99.90
20139;DHT22;10230;51.502;10.800;2023-01-13T04:14:17;10.20;99.90
20139;DHT22;10230;51.502;10.800;2023-01-13T04:16:43;10.20;99.90
20139;DHT22;10230;51.502;10.800;2023-01-13T04:19:09;10.20;99.90
20139;DHT22;10230;51.502;10.800;2023-01-13T04:21:35;10.20;99.90
20139;DHT22;10230;51.502;10.800;2023-01-13T04:24:00;10.20;99.90
20139;DHT22;10230;51.502;10.800;2023-01-13T04:26:26;10.10;99.90
20139;DHT22;10230;51.502;10.800;2023-01-13T04:28:52;10.00;99.90
20139;DHT22;10230;51.502;10.800;2023-01-13T04:31:19;9.80;99.90
20139;DHT22;10230;51.502;10.800;2023-01-13T04:33:45;9.60;99.90
20139;DHT22;10230;51.502;10.800;2023-01-13T04:36:10;9.30;99.90
20139;DHT22;10230;51.502;10.800;2023-01-13T04:38:36;9.10;99.90
20139;DHT22;10230;51.502;10.800;2023-01-13T04:41:01;8.80;99.90
20139;DHT22;10230;51.502;10.800;2023-01-13T04:43:27;8.60;99.90
20139;DHT22;10230;51.502;10.800;2023-01-13T04:45:53;8.50;99.90
20139;DHT22;10230;51.502;10.800;2023-01-13T04:48:20;8.40;99.90
20139;DHT22;10230;51.502;10.800;2023-01-13T04:50:45;8.30;99.90
20139;DHT22;10230;51.502;10.800;2023-01-13T04:53:11;8.20;99.90
20139;DHT22;10230;51.502;10.800;2023-01-13T04:55:37;8.10;99.90
20139;DHT22;10230;51.502;10.800;2023-01-13T04:58:08;8.10;99.90
20139;DHT22;10230;51.502;10.800;2023-01-13T05:00:35;8.10;99.90
20139;DHT22;10230;51.502;10.800;2023-01-13T05:03:02;8.00;99.90
20139;DHT22;10230;51.502;10.800;2023-01-13T05:05:29;8.00;99.90
20139;DHT22;10230;51.502;10.800;2023-01-13T05:07:54;8.00;99.90
20139;DHT22;10230;51.502;10.800;2023-01-13T05:10:20;8.00;99.90
20139;DHT22;10230;51.502;10.800;2023-01-13T05:12:46;8.00;99.90
20139;DHT22;10230;51.502;10.800;2023-01-13T05:15:31;8.30;99.90
20139;DHT22;10230;51.502;10.800;2023-01-13T05:18:15;8.00;99.90
20139;DHT22;10230;51.502;10.800;2023-01-13T05:20:41;8.10;99.90
20139;DHT22;10230;51.502;10.800;2023-01-13T05:23:07;8.00;99.90
20139;DHT22;10230;51.502;10.800;2023-01-13T05:25:51;8.10;99.90
20139;DHT22;10230;51.502;10.800;2023-01-13T05:28:17;8.10;99.90
20139;DHT22;10230;51.502;10.800;2023-01-13T05:30:45;8.10;99.90
20139;DHT22;10230;51.502;10.800;2023-01-13T05:33:13;8.10;99.90
20139;DHT22;10230;51.502;10.800;2023-01-13T05:35:40;8.10;99.90
20139;DHT22;10230;51.502;10.800;2023-01-13T05:38:06;8.10;99.90
20139;DHT22;10230;51.502;10.800;2023-01-13T05:40:33;8.20;99.90
20139;DHT22;10230;51.502;10.800;2023-01-13T05:43:19;8.10;99.90
20139;DHT22;10230;51.502;10.800;2023-01-13T05:48:20;8.10;99.90
20139;DHT22;10230;51.502;10.800;2023-01-13T05:50:47;8.20;99.90
20139;DHT22;10230;51.502;10.800;2023-01-13T05:53:13;8.10;99.90
20139;DHT22;10230;51.502;10.800;2023-01-13T05:55:40;8.10;99.90
20139;DHT22;10230;51.502;10.800;2023-01-13T05:58:08;8.10;99.90
20139;DHT22;10230;51.502;10.800;2023-01-13T06:00:34;8.00;99.90
20139;DHT22;10230;51.502;10.800;2023-01-13T06:02:59;8.00;99.90
20139;DHT22;10230;51.502;10.800;2023-01-13T06:05:25;8.00;99.90
20139;DHT22;10230;51.502;10.800;2023-01-13T06:07:51;8.00;99.90
20139;DHT22;10230;51.502;10.800;2023-01-13T06:10:20;8.00;99.90
20139;DHT22;10230;51.502;10.800;2023-01-13T06:12:45;8.00;99.90
20139;DHT22;10230;51.502;10.800;2023-01-13T06:15:11;8.00;99.90
20139;DHT22;10230;51.502;10.800;2023-01-13T06:17:36;8.10;99.90
20139;DHT22;10230;51.502;10.800;2023-01-13T06:20:02;8.10;99.90
20139;DHT22;10230;51.502;10.800;2023-01-13T06:22:29;8.10;99.90
20139;DHT22;10230;51.502;10.800;2023-01-13T06:24:57;8.10;99.90
20139;DHT22;10230;51.502;10.800;2023-01-13T06:27:23;8.00;99.90
20139;DHT22;10230;51.502;10.800;2023-01-13T06:29:50;8.10;99.90
20139;DHT22;10230;51.502;10.800;2023-01-13T06:32:18;8.00;99.90
20139;DHT22;10230;51.502;10.800;2023-01-13T06:34:48;8.00;99.90
20139;DHT22;10230;51.502;10.800;2023-01-13T06:37:16;8.00;99.90
20139;DHT22;10230;51.502;10.800;2023-01-13T06:39:44;8.00;99.90
20139;DHT22;10230;51.502;10.800;2023-01-13T06:42:10;8.00;99.90
20139;DHT22;10230;51.502;10.800;2023-01-13T06:44:54;8.00;99.90
20139;DHT22;10230;51.502;10.800;2023-01-13T06:47:20;8.00;99.90
20139;DHT22;10230;51.502;10.800;2023-01-13T06:49:47;8.00;99.90
20139;DHT22;10230;51.502;10.800;2023-01-13T06:52:13;8.00;99.90
20139;DHT22;10230;51.502;10.800;2023-01-13T06:54:38;8.10;99.90
20139;DHT22;10230;51.502;10.800;2023-01-13T06:57:04;8.10;99.90
20139;DHT22;10230;51.502;10.800;2023-01-13T06:59:30;8.10;99.90
20139;DHT22;10230;51.502;10.800;2023-01-13T07:01:58;8.00;99.90
20139;DHT22;10230;51.502;10.800;2023-01-13T07:04:24;8.10;99.90
20139;DHT22;10230;51.502;10.800;2023-01-13T07:06:50;8.00;99.90
20139;DHT22;10230;51.502;10.800;2023-01-13T07:09:15;7.90;99.90
20139;DHT22;10230;51.502;10.800;2023-01-13T07:11:41;7.90;99.90
20139;DHT22;10230;51.502;10.800;2023-01-13T07:14:07;7.90;99.90
20139;DHT22;10230;51.502;10.800;2023-01-13T07:16:52;7.90;99.90
20139;DHT22;10230;51.502;10.800;2023-01-13T07:19:19;7.90;99.90
20139;DHT22;10230;51.502;10.800;2023-01-13T07:21:49;7.90;99.90
20139;DHT22;10230;51.502;10.800;2023-01-13T07:24:15;7.80;99.90
20139;DHT22;10230;51.502;10.800;2023-01-13T07:26:41;7.80;99.90
20139;DHT22;10230;51.502;10.800;2023-01-13T07:29:06;7.80;99.90
20139;DHT22;10230;51.502;10.800;2023-01-13T07:31:32;7.80;99.90
20139;DHT22;10230;51.502;10.800;2023-01-13T07:33:58;7.70;99.90
20139;DHT22;10230;51.502;10.800;2023-01-13T07:36:23;7.70;99.90
20139;DHT22;10230;51.502;10.800;2023-01-13T07:38:49;7.60;99.90
20139;DHT22;10230;51.502;10.800;2023-01-13T07:41:15;7.60;99.90
20139;DHT22;10230;51.502;10.800;2023-01-13T07:43:59;7.60;99.90
20139;DHT22;10230;51.502;10.800;2023-01-13T07:48:55;7.60;99.90
20139;DHT22;10230;51.502;10.800;2023-01-13T07:51:20;7.50;99.90
20139;DHT22;10230;51.502;10.800;2023-01-13T07:53:46;7.60;99.90
20139;DHT22;10230;51.502;10.800;2023-01-13T07:56:12;7.50;99.90
20139;DHT22;10230;51.502;10.800;2023-01-13T07:58:37;7.50;99.90
20139;DHT22;10230;51.502;10.800;2023-01-13T08:01:08;7.50;99.90
20139;DHT22;10230;51.502;10.800;2023-01-13T08:03:34;7.50;99.90
20139;DHT22;10230;51.502;10.800;2023-01-13T08:06:00;7.50;99.90
20139;DHT22;10230;51.502;10.800;2023-01-13T08:08:26;7.50;99.90
20139;DHT22;10230;51.502;10.800;2023-01-13T08:59:44;7.40;99.90
20139;DHT22;10230;51.502;10.800;2023-01-13T09:02:16;7.40;99.90
20139;DHT22;10230;51.502;10.800;2023-01-13T12:11:02;12.00;99.90
20139;DHT22;10230;51.502;10.800;2023-01-13T12:16:49;11.60;99.90
20139;DHT22;10230;51.502;10.800;2023-01-13T12:19:29;11.20;99.90
20139;DHT22;10230;51.502;10.800;2023-01-13T12:22:27;11.00;99.90
20139;DHT22;10230;51.502;10.800;2023-01-13T12:25:42;11.20;99.90
20139;DHT22;10230;51.502;10.800;2023-01-13T12:28:14;11.90;99.90
20139;DHT22;10230;51.502;10.800;2023-01-13T12:30:48;12.20;99.90
20139;DHT22;10230;51.502;10.800;2023-01-13T12:38:39;12.90;99.90
20139;DHT22;10230;51.502;10.800;2023-01-13T12:43:55;13.40;99.90
20139;DHT22;10230;51.502;10.800;2023-01-13T12:46:49;13.50;99.90
20139;DHT22;10230;51.502;10.800;2023-01-13T12:59:43;12.60;99.90
20139;DHT22;10230;51.502;10.800;2023-01-13T13:04:49;13.10;99.90
20139;DHT22;10230;51.502;10.800;2023-01-13T13:10:13;13.80;99.90
20139;DHT22;10230;51.502;10.800;2023-01-13T13:15:32;13.30;99.90
20139;DHT22;10230;51.502;10.800;2023-01-13T13:18:05;12.80;99.90
20139;DHT22;10230;51.502;10.800;2023-01-13T13:26:30;12.30;99.90
20139;DHT22;10230;51.502;10.800;2023-01-13T13:29:20;12.30;99.90
20139;DHT22;10230;51.502;10.800;2023-01-13T13:34:30;12.50;99.90
20139;DHT22;10230;51.502;10.800;2023-01-13T13:39:40;12.80;99.90
20139;DHT22;10230;51.502;10.800;2023-01-13T13:42:33;12.90;99.90
20139;DHT22;10230;51.502;10.800;2023-01-13T13:45:20;13.00;99.90
20139;DHT22;10230;51.502;10.800;2023-01-13T13:48:28;12.80;99.90
20139;DHT22;10230;51.502;10.800;2023-01-13T13:51:00;12.40;99.90
20139;DHT22;10230;51.502;10.800;2023-01-13T13:53:33;12.20;99.90
20139;DHT22;10230;51.502;10.800;2023-01-13T13:56:02;12.10;99.90
20139;DHT22;10230;51.502;10.800;2023-01-13T13:58:30;11.90;99.90
20139;DHT22;10230;51.502;10.800;2023-01-13T14:00:58;11.60;99.90
20139;DHT22;10230;51.502;10.800;2023-01-13T14:03:30;11.40;99.90
20139;DHT22;10230;51.502;10.800;2023-01-13T14:06:04;11.10;99.90
20139;DHT22;10230;51.502;10.800;2023-01-13T14:08:33;10.90;99.90
20139;DHT22;10230;51.502;10.800;2023-01-13T14:11:00;10.70;99.90
20139;DHT22;10230;51.502;10.800;2023-01-13T14:13:28;10.50;99.90
20139;DHT22;10230;51.502;10.800;2023-01-13T14:15:59;10.40;99.90
20139;DHT22;10230;51.502;10.800;2023-01-13T14:18:26;10.30;99.90
20139;DHT22;10230;51.502;10.800;2023-01-13T14:20:57;10.30;99.90
20139;DHT22;10230;51.502;10.800;2023-01-13T14:23:26;10.20;99.90
20139;DHT22;10230;51.502;10.800;2023-01-13T14:25:52;10.10;99.90
20139;DHT22;10230;51.502;10.800;2023-01-13T14:28:29;10.10;99.90
20139;DHT22;10230;51.502;10.800;2023-01-13T14:30:57;10.00;99.90
20139;DHT22;10230;51.502;10.800;2023-01-13T14:33:36;9.90;99.90
20139;DHT22;10230;51.502;10.800;2023-01-13T14:41:31;9.40;99.90
20139;DHT22;10230;51.502;10.800;2023-01-13T14:43:59;9.30;99.90
20139;DHT22;10230;51.502;10.800;2023-01-13T14:46:42;9.20;99.90
20139;DHT22;10230;51.502;10.800;2023-01-13T14:49:37;9.20;99.90
20139;DHT22;10230;51.502;10.800;2023-01-13T14:52:15;9.10;99.90
20139;DHT22;10230;51.502;10.800;2023-01-13T14:54:46;9.00;99.90
20139;DHT22;10230;51.502;10.800;2023-01-13T14:57:31;9.00;99.90
20139;DHT22;10230;51.502;10.800;2023-01-13T15:05:40;8.80;99.90
20139;DHT22;10230;51.502;10.800;2023-01-13T15:08:33;8.80;99.90
20139;DHT22;10230;51.502;10.800;2023-01-13T15:10:58;8.70;99.90
20139;DHT22;10230;51.502;10.800;2023-01-13T15:13:42;8.70;99.90
20139;DHT22;10230;51.502;10.800;2023-01-13T15:16:24;8.60;99.90
20139;DHT22;10230;51.502;10.800;2023-01-13T15:18:50;8.60;99.90
20139;DHT22;10230;51.502;10.800;2023-01-13T15:21:16;8.60;99.90
20139;DHT22;10230;51.502;10.800;2023-01-13T15:23:43;8.60;99.90
20139;DHT22;10230;51.502;10.800;2023-01-13T15:26:18;8.60;99.90
20139;DHT22;10230;51.502;10.800;2023-01-13T15:28:45;8.60;99.90
20139;DHT22;10230;51.502;10.800;2023-01-13T15:31:11;8.60;99.90
20139;DHT22;10230;51.502;10.800;2023-01-13T15:33:37;8.60;99.90
20139;DHT22;10230;51.502;10.800;2023-01-13T15:36:02;8.60;99.90
20139;DHT22;10230;51.502;10.800;2023-01-13T15:38:30;8.60;99.90
20139;DHT22;10230;51.502;10.800;2023-01-13T15:40:56;8.60;99.90
20139;DHT22;10230;51.502;10.800;2023-01-13T15:43:22;8.60;99.90
20139;DHT22;10230;51.502;10.800;2023-01-13T15:46:15;8.60;99.90
20139;DHT22;10230;51.502;10.800;2023-01-13T15:51:49;8.60;99.90
20139;DHT22;10230;51.502;10.800;2023-01-13T15:54:15;8.50;99.90
20139;DHT22;10230;51.502;10.800;2023-01-13T15:56:41;8.60;99.90
20139;DHT22;10230;51.502;10.800;2023-01-13T15:59:19;8.60;99.90
20139;DHT22;10230;51.502;10.800;2023-01-13T16:01:45;8.50;99.90
20139;DHT22;10230;51.502;10.800;2023-01-13T16:04:11;8.40;99.90
20139;DHT22;10230;51.502;10.800;2023-01-13T16:06:36;8.30;99.90
20139;DHT22;10230;51.502;10.800;2023-01-13T16:09:03;8.20;99.90
20139;DHT22;10230;51.502;10.800;2023-01-13T16:11:29;8.20;99.90
20139;DHT22;10230;51.502;10.800;2023-01-13T16:13:55;8.00;99.90
20139;DHT22;10230;51.502;10.800;2023-01-13T16:16:22;7.90;99.90
20139;DHT22;10230;51.502;10.800;2023-01-13T16:18:49;7.80;99.90
20139;DHT22;10230;51.502;10.800;2023-01-13T16:21:15;7.70;99.90
20139;DHT22;10230;51.502;10.800;2023-01-13T16:23:43;7.60;99.90
20139;DHT22;10230;51.502;10.800;2023-01-13T16:28:41;7.50;99.90
20139;DHT22;10230;51.502;10.800;2023-01-13T16:31:25;7.50;99.90
20139;DHT22;10230;51.502;10.800;2023-01-13T16:33:51;7.50;99.90
20139;DHT22;10230;51.502;10.800;2023-01-13T16:36:18;7.50;99.90
20139;DHT22;10230;51.502;10.800;2023-01-13T16:38:45;7.50;99.90
20139;DHT22;10230;51.502;10.800;2023-01-13T16:41:11;7.40;99.90
20139;DHT22;10230;51.502;10.800;2023-01-13T16:43:37;7.40;99.90
20139;DHT22;10230;51.502;10.800;2023-01-13T16:46:24;7.40;99.90
20139;DHT22;10230;51.502;10.800;2023-01-13T16:48:52;7.30;99.90
20139;DHT22;10230;51.502;10.800;2023-01-13T16:51:18;7.30;99.90
20139;DHT22;10230;51.502;10.800;2023-01-13T16:53:44;7.20;99.90
20139;DHT22;10230;51.502;10.800;2023-01-13T16:56:26;7.30;99.90
20139;DHT22;10230;51.502;10.800;2023-01-13T16:58:53;7.20;99.90
20139;DHT22;10230;51.502;10.800;2023-01-13T17:01:31;7.30;99.90
20139;DHT22;10230;51.502;10.800;2023-01-13T17:03:57;7.30;99.90
20139;DHT22;10230;51.502;10.800;2023-01-13T17:06:28;7.30;99.90
20139;DHT22;10230;51.502;10.800;2023-01-13T17:09:00;7.30;99.90
20139;DHT22;10230;51.502;10.800;2023-01-13T17:11:25;7.30;99.90
20139;DHT22;10230;51.502;10.800;2023-01-13T17:13:51;7.30;99.90
20139;DHT22;10230;51.502;10.800;2023-01-13T17:16:20;7.20;99.90
20139;DHT22;10230;51.502;10.800;2023-01-13T17:18:46;7.20;99.90
20139;DHT22;10230;51.502;10.800;2023-01-13T17:21:12;7.20;99.90
20139;DHT22;10230;51.502;10.800;2023-01-13T17:23:38;7.10;99.90
20139;DHT22;10230;51.502;10.800;2023-01-13T17:26:04;7.10;99.90
20139;DHT22;10230;51.502;10.800;2023-01-13T17:28:30;7.00;99.90
20139;DHT22;10230;51.502;10.800;2023-01-13T17:30:56;7.00;99.90
20139;DHT22;10230;51.502;10.800;2023-01-13T17:33:21;7.10;99.90
20139;DHT22;10230;51.502;10.800;2023-01-13T17:35:47;7.10;99.90
20139;DHT22;10230;51.502;10.800;2023-01-13T17:38:13;7.10;99.90
20139;DHT22;10230;51.502;10.800;2023-01-13T17:40:38;7.10;99.90
20139;DHT22;10230;51.502;10.800;2023-01-13T17:43:04;7.20;99.90
20139;DHT22;10230;51.502;10.800;2023-01-13T17:45:29;7.20;99.90
20139;DHT22;10230;51.502;10.800;2023-01-13T17:47:56;7.20;99.90
20139;DHT22;10230;51.502;10.800;2023-01-13T17:50:24;7.20;99.90
20139;DHT22;10230;51.502;10.800;2023-01-13T17:52:55;7.20;99.90
20139;DHT22;10230;51.502;10.800;2023-01-13T17:55:20;7.20;99.90
20139;DHT22;10230;51.502;10.800;2023-01-13T17:57:46;7.30;99.90
20139;DHT22;10230;51.502;10.800;2023-01-13T18:00:12;7.30;99.90
20139;DHT22;10230;51.502;10.800;2023-01-13T18:02:38;7.30;99.90
20139;DHT22;10230;51.502;10.800;2023-01-13T18:05:03;7.30;99.90
20139;DHT22;10230;51.502;10.800;2023-01-13T18:07:29;7.30;99.90
20139;DHT22;10230;51.502;10.800;2023-01-13T18:09:55;7.30;99.90
20139;DHT22;10230;51.502;10.800;2023-01-13T18:12:20;7.30;99.90
20139;DHT22;10230;51.502;10.800;2023-01-13T18:14:46;7.30;99.90
20139;DHT22;10230;51.502;10.800;2023-01-13T18:17:12;7.20;99.90
20139;DHT22;10230;51.502;10.800;2023-01-13T18:19:37;7.20;99.90
20139;DHT22;10230;51.502;10.800;2023-01-13T18:22:21;7.20;99.90
20139;DHT22;10230;51.502;10.800;2023-01-13T18:25:10;7.10;99.90
20139;DHT22;10230;51.502;10.800;2023-01-13T18:27:54;7.00;99.90
20139;DHT22;10230;51.502;10.800;2023-01-13T18:30:21;7.00;99.90
20139;DHT22;10230;51.502;10.800;2023-01-13T18:32:46;7.00;99.90
20139;DHT22;10230;51.502;10.800;2023-01-13T18:35:12;7.00;99.90
20139;DHT22;10230;51.502;10.800;2023-01-13T18:37:40;6.90;99.90
20139;DHT22;10230;51.502;10.800;2023-01-13T18:40:08;6.90;99.90
20139;DHT22;10230;51.502;10.800;2023-01-13T18:42:35;6.90;99.90
20139;DHT22;10230;51.502;10.800;2023-01-13T18:45:20;6.90;99.90
20139;DHT22;10230;51.502;10.800;2023-01-13T18:47:46;6.90;99.90
20139;DHT22;10230;51.502;10.800;2023-01-13T18:50:11;7.00;99.90
20139;DHT22;10230;51.502;10.800;2023-01-13T18:52:38;7.00;99.90
20139;DHT22;10230;51.502;10.800;2023-01-13T18:55:04;7.10;99.90
20139;DHT22;10230;51.502;10.800;2023-01-13T18:57:30;7.10;99.90
20139;DHT22;10230;51.502;10.800;2023-01-13T18:59:56;7.10;99.90
20139;DHT22;10230;51.502;10.800;2023-01-13T19:02:22;7.10;99.90
20139;DHT22;10230;51.502;10.800;2023-01-13T19:04:50;7.10;99.90
20139;DHT22;10230;51.502;10.800;2023-01-13T19:07:16;7.10;99.90
20139;DHT22;10230;51.502;10.800;2023-01-13T19:09:47;7.10;99.90
20139;DHT22;10230;51.502;10.800;2023-01-13T19:12:16;7.10;99.90
20139;DHT22;10230;51.502;10.800;2023-01-13T19:14:51;7.10;99.90
20139;DHT22;10230;51.502;10.800;2023-01-13T19:17:16;7.10;99.90
20139;DHT22;10230;51.502;10.800;2023-01-13T19:19:48;7.10;99.90
20139;DHT22;10230;51.502;10.800;2023-01-13T19:22:17;7.00;99.90
20139;DHT22;10230;51.502;10.800;2023-01-13T19:24:44;7.00;99.90
20139;DHT22;10230;51.502;10.800;2023-01-13T19:27:11;6.90;99.90
20139;DHT22;10230;51.502;10.800;2023-01-13T19:29:42;6.90;99.90
20139;DHT22;10230;51.502;10.800;2023-01-13T19:32:08;6.90;99.90
20139;DHT22;10230;51.502;10.800;2023-01-13T19:34:34;6.80;99.90
20139;DHT22;10230;51.502;10.800;2023-01-13T19:37:00;6.80;99.90
20139;DHT22;10230;51.502;10.800;2023-01-13T19:39:28;6.70;99.90
20139;DHT22;10230;51.502;10.800;2023-01-13T19:41:54;6.70;99.90
20139;DHT22;10230;51.502;10.800;2023-01-13T19:44:38;6.70;99.90
20139;DHT22;10230;51.502;10.800;2023-01-13T19:47:23;6.70;99.90
20139;DHT22;10230;51.502;10.800;2023-01-13T19:49:48;6.70;99.90
20139;DHT22;10230;51.502;10.800;2023-01-13T19:52:14;6.70;99.90
20139;DHT22;10230;51.502;10.800;2023-01-13T19:54:40;6.70;99.90
20139;DHT22;10230;51.502;10.800;2023-01-13T19:57:05;6.70;99.90
20139;DHT22;10230;51.502;10.800;2023-01-13T19:59:31;6.70;99.90
20139;DHT22;10230;51.502;10.800;2023-01-13T20:01:59;6.60;99.90
20139;DHT22;10230;51.502;10.800;2023-01-13T20:04:26;6.60;99.90
20139;DHT22;10230;51.502;10.800;2023-01-13T20:07:02;6.60;99.90
20139;DHT22;10230;51.502;10.800;2023-01-13T20:09:29;6.60;99.90
20139;DHT22;10230;51.502;10.800;2023-01-13T20:11:55;6.60;99.90
20139;DHT22;10230;51.502;10.800;2023-01-13T20:14:21;6.50;99.90
20139;DHT22;10230;51.502;10.800;2023-01-13T20:16:47;6.50;99.90
20139;DHT22;10230;51.502;10.800;2023-01-13T20:19:13;6.50;99.90
20139;DHT22;10230;51.502;10.800;2023-01-13T20:21:41;6.50;99.90
20139;DHT22;10230;51.502;10.800;2023-01-13T20:24:08;6.50;99.90
20139;DHT22;10230;51.502;10.800;2023-01-13T20:26:35;6.50;99.90
20139;DHT22;10230;51.502;10.800;2023-01-13T20:29:04;6.50;99.90
20139;DHT22;10230;51.502;10.800;2023-01-13T20:31:29;6.50;99.90
20139;DHT22;10230;51.502;10.800;2023-01-13T20:33:55;6.50;99.90
20139;DHT22;10230;51.502;10.800;2023-01-13T20:36:28;6.50;99.90
20139;DHT22;10230;51.502;10.800;2023-01-13T20:39:00;6.50;99.90
20139;DHT22;10230;51.502;10.800;2023-01-13T20:41:26;6.50;99.90
20139;DHT22;10230;51.502;10.800;2023-01-13T20:44:10;6.50;99.90
20139;DHT22;10230;51.502;10.800;2023-01-13T20:46:41;6.50;99.90
20139;DHT22;10230;51.502;10.800;2023-01-13T20:49:09;6.50;99.90
20139;DHT22;10230;51.502;10.800;2023-01-13T20:51:35;6.60;99.90
20139;DHT22;10230;51.502;10.800;2023-01-13T20:54:01;6.60;99.90
20139;DHT22;10230;51.502;10.800;2023-01-13T20:56:27;6.70;99.90
20139;DHT22;10230;51.502;10.800;2023-01-13T20:58:53;6.70;99.90
20139;DHT22;10230;51.502;10.800;2023-01-13T21:01:18;6.80;99.90
20139;DHT22;10230;51.502;10.800;2023-01-13T21:03:44;6.80;99.90
20139;DHT22;10230;51.502;10.800;2023-01-13T21:06:10;6.70;99.90
20139;DHT22;10230;51.502;10.800;2023-01-13T21:08:36;6.70;99.90
20139;DHT22;10230;51.502;10.800;2023-01-13T21:11:04;6.70;99.90
20139;DHT22;10230;51.502;10.800;2023-01-13T21:13:30;6.60;99.90
20139;DHT22;10230;51.502;10.800;2023-01-13T21:16:15;6.60;99.90
20139;DHT22;10230;51.502;10.800;2023-01-13T21:18:41;6.50;99.90
20139;DHT22;10230;51.502;10.800;2023-01-13T21:21:25;6.50;99.90
20139;DHT22;10230;51.502;10.800;2023-01-13T21:23:51;6.50;99.90
20139;DHT22;10230;51.502;10.800;2023-01-13T21:26:20;6.50;99.90